sensor_id;sensor_type;location;lat;lon;timestamp;P1;durP1;ratioP1;P2;durP2;ratioP2
59978;SDS011;45839;44.882;20.650;2023-08-08T00:00:20;2.03;;;0.63;;
59978;SDS011;45839;44.882;20.650;2023-08-08T00:02:46;6.07;;;0.70;;
59978;SDS011;45839;44.882;20.650;2023-08-08T00:05:12;3.08;;;0.40;;
59978;SDS011;45839;44.882;20.650;2023-08-08T00:07:38;1.20;;;0.50;;
59978;SDS011;45839;44.882;20.650;2023-08-08T00:10:05;1.77;;;0.50;;
59978;SDS011;45839;44.882;20.650;2023-08-08T00:12:31;3.38;;;0.52;;
59978;SDS011;45839;44.882;20.650;2023-08-08T00:14:58;1.70;;;0.70;;
59978;SDS011;45839;44.882;20.650;2023-08-08T00:17:24;1.48;;;0.50;;
59978;SDS011;45839;44.882;20.650;2023-08-08T00:19:50;1.52;;;0.60;;
59978;SDS011;45839;44.882;20.650;2023-08-08T00:22:17;2.00;;;0.55;;
59978;SDS011;45839;44.882;20.650;2023-08-08T00:24:43;1.95;;;0.52;;
59978;SDS011;45839;44.882;20.650;2023-08-08T00:27:09;3.25;;;0.82;;
59978;SDS011;45839;44.882;20.650;2023-08-08T00:29:35;2.42;;;0.45;;
59978;SDS011;45839;44.882;20.650;2023-08-08T00:32:01;1.17;;;0.35;;
59978;SDS011;45839;44.882;20.650;2023-08-08T00:34:27;2.10;;;0.50;;
59978;SDS011;45839;44.882;20.650;2023-08-08T00:36:54;0.77;;;0.40;;
59978;SDS011;45839;44.882;20.650;2023-08-08T00:39:20;1.10;;;0.50;;
59978;SDS011;45839;44.882;20.650;2023-08-08T00:41:46;4.03;;;0.65;;
59978;SDS011;45839;44.882;20.650;2023-08-08T00:44:12;1.35;;;0.40;;
59978;SDS011;45839;44.882;20.650;2023-08-08T00:46:38;1.15;;;0.50;;
59978;SDS011;45839;44.882;20.650;2023-08-08T00:49:04;1.48;;;0.40;;
59978;SDS011;45839;44.882;20.650;2023-08-08T00:51:30;0.70;;;0.40;;
59978;SDS011;45839;44.882;20.650;2023-08-08T00:53:56;1.00;;;0.50;;
59978;SDS011;45839;44.882;20.650;2023-08-08T00:56:22;2.95;;;0.60;;
59978;SDS011;45839;44.882;20.650;2023-08-08T00:58:48;2.22;;;1.02;;
59978;SDS011;45839;44.882;20.650;2023-08-08T01:01:15;0.80;;;0.43;;
59978;SDS011;45839;44.882;20.650;2023-08-08T01:03:42;2.40;;;0.50;;
59978;SDS011;45839;44.882;20.650;2023-08-08T01:06:10;0.85;;;0.40;;
59978;SDS011;45839;44.882;20.650;2023-08-08T01:09:24;2.10;;;0.50;;
59978;SDS011;45839;44.882;20.650;2023-08-08T01:11:30;1.20;;;0.50;;
59978;SDS011;45839;44.882;20.650;2023-08-08T01:13:59;1.13;;;0.45;;
59978;SDS011;45839;44.882;20.650;2023-08-08T01:16:26;3.03;;;0.47;;
59978;SDS011;45839;44.882;20.650;2023-08-08T01:18:53;1.55;;;0.35;;
59978;SDS011;45839;44.882;20.650;2023-08-08T01:21:20;1.13;;;0.30;;
59978;SDS011;45839;44.882;20.650;2023-08-08T01:23:49;1.23;;;0.40;;
59978;SDS011;45839;44.882;20.650;2023-08-08T01:26:18;0.68;;;0.40;;
59978;SDS011;45839;44.882;20.650;2023-08-08T01:28:44;1.60;;;0.40;;
59978;SDS011;45839;44.882;20.650;2023-08-08T01:31:10;3.83;;;0.90;;
59978;SDS011;45839;44.882;20.650;2023-08-08T01:33:36;1.60;;;0.30;;
59978;SDS011;45839;44.882;20.650;2023-08-08T01:36:04;3.65;;;0.45;;
59978;SDS011;45839;44.882;20.650;2023-08-08T01:38:34;3.42;;;0.30;;
59978;SDS011;45839;44.882;20.650;2023-08-08T01:41:02;0.70;;;0.40;;
59978;SDS011;45839;44.882;20.650;2023-08-08T01:43:30;0.52;;;0.38;;
59978;SDS011;45839;44.882;20.650;2023-08-08T01:45:56;0.40;;;0.32;;
59978;SDS011;45839;44.882;20.650;2023-08-08T01:48:22;1.25;;;0.40;;
59978;SDS011;45839;44.882;20.650;2023-08-08T01:50:48;1.35;;;0.40;;
59978;SDS011;45839;44.882;20.650;2023-08-08T01:53:14;0.43;;;0.40;;
59978;SDS011;45839;44.882;20.650;2023-08-08T01:55:40;0.65;;;0.40;;
59978;SDS011;45839;44.882;20.650;2023-08-08T01:58:06;0.85;;;0.30;;
59978;SDS011;45839;44.882;20.650;2023-08-08T02:00:32;0.77;;;0.32;;
59978;SDS011;45839;44.882;20.650;2023-08-08T02:02:58;0.80;;;0.40;;
59978;SDS011;45839;44.882;20.650;2023-08-08T02:05:25;0.98;;;0.40;;
59978;SDS011;45839;44.882;20.650;2023-08-08T02:07:51;0.73;;;0.40;;
59978;SDS011;45839;44.882;20.650;2023-08-08T02:10:17;1.00;;;0.40;;
59978;SDS011;45839;44.882;20.650;2023-08-08T02:12:43;1.48;;;0.40;;
59978;SDS011;45839;44.882;20.650;2023-08-08T02:15:10;1.30;;;0.40;;
59978;SDS011;45839;44.882;20.650;2023-08-08T02:17:37;1.95;;;0.60;;
59978;SDS011;45839;44.882;20.650;2023-08-08T02:20:04;1.25;;;0.50;;
59978;SDS011;45839;44.882;20.650;2023-08-08T02:22:30;0.98;;;0.55;;
59978;SDS011;45839;44.882;20.650;2023-08-08T02:24:56;2.05;;;0.57;;
59978;SDS011;45839;44.882;20.650;2023-08-08T02:27:22;2.13;;;0.60;;
59978;SDS011;45839;44.882;20.650;2023-08-08T02:29:48;4.07;;;0.70;;
59978;SDS011;45839;44.882;20.650;2023-08-08T02:32:15;1.75;;;0.50;;
59978;SDS011;45839;44.882;20.650;2023-08-08T02:34:41;0.88;;;0.40;;
59978;SDS011;45839;44.882;20.650;2023-08-08T02:37:07;1.00;;;0.50;;
59978;SDS011;45839;44.882;20.650;2023-08-08T02:39:33;2.22;;;0.63;;
59978;SDS011;45839;44.882;20.650;2023-08-08T02:41:59;0.82;;;0.40;;
59978;SDS011;45839;44.882;20.650;2023-08-08T02:44:25;1.23;;;0.60;;
59978;SDS011;45839;44.882;20.650;2023-08-08T02:46:52;0.93;;;0.40;;
59978;SDS011;45839;44.882;20.650;2023-08-08T02:49:18;0.77;;;0.40;;
59978;SDS011;45839;44.882;20.650;2023-08-08T02:51:44;0.50;;;0.40;;
59978;SDS011;45839;44.882;20.650;2023-08-08T02:54:10;1.30;;;0.45;;
59978;SDS011;45839;44.882;20.650;2023-08-08T02:56:36;1.65;;;0.60;;
59978;SDS011;45839;44.882;20.650;2023-08-08T02:59:02;1.77;;;0.55;;
59978;SDS011;45839;44.882;20.650;2023-08-08T03:01:28;1.33;;;0.55;;
59978;SDS011;45839;44.882;20.650;2023-08-08T03:03:54;2.40;;;0.50;;
59978;SDS011;45839;44.882;20.650;2023-08-08T03:06:20;1.50;;;0.52;;
59978;SDS011;45839;44.882;20.650;2023-08-08T03:08:46;2.08;;;0.50;;
59978;SDS011;45839;44.882;20.650;2023-08-08T03:11:13;2.25;;;0.50;;
59978;SDS011;45839;44.882;20.650;2023-08-08T03:13:39;2.13;;;0.45;;
59978;SDS011;45839;44.882;20.650;2023-08-08T03:16:05;2.47;;;0.57;;
59978;SDS011;45839;44.882;20.650;2023-08-08T03:18:31;3.60;;;0.75;;
59978;SDS011;45839;44.882;20.650;2023-08-08T03:20:57;1.35;;;0.60;;
59978;SDS011;45839;44.882;20.650;2023-08-08T03:23:23;1.95;;;0.60;;
59978;SDS011;45839;44.882;20.650;2023-08-08T03:25:49;2.88;;;0.52;;
59978;SDS011;45839;44.882;20.650;2023-08-08T03:28:16;1.02;;;0.45;;
59978;SDS011;45839;44.882;20.650;2023-08-08T03:30:42;1.23;;;0.50;;
59978;SDS011;45839;44.882;20.650;2023-08-08T03:33:08;1.92;;;0.60;;
59978;SDS011;45839;44.882;20.650;2023-08-08T03:35:34;0.70;;;0.55;;
59978;SDS011;45839;44.882;20.650;2023-08-08T03:38:00;2.33;;;0.60;;
59978;SDS011;45839;44.882;20.650;2023-08-08T03:40:26;2.88;;;1.08;;
59978;SDS011;45839;44.882;20.650;2023-08-08T03:42:52;2.50;;;0.75;;
59978;SDS011;45839;44.882;20.650;2023-08-08T03:45:18;1.70;;;0.70;;
59978;SDS011;45839;44.882;20.650;2023-08-08T03:47:44;2.25;;;0.80;;
59978;SDS011;45839;44.882;20.650;2023-08-08T03:50:10;2.70;;;0.77;;
59978;SDS011;45839;44.882;20.650;2023-08-08T03:52:37;2.53;;;0.60;;
59978;SDS011;45839;44.882;20.650;2023-08-08T03:55:03;1.88;;;0.77;;
59978;SDS011;45839;44.882;20.650;2023-08-08T03:57:30;2.50;;;1.10;;
59978;SDS011;45839;44.882;20.650;2023-08-08T03:59:56;2.33;;;1.00;;
59978;SDS011;45839;44.882;20.650;2023-08-08T04:02:22;1.98;;;0.90;;
59978;SDS011;45839;44.882;20.650;2023-08-08T04:04:48;1.48;;;0.70;;
59978;SDS011;45839;44.882;20.650;2023-08-08T04:07:14;3.15;;;1.15;;
59978;SDS011;45839;44.882;20.650;2023-08-08T04:09:40;2.65;;;1.17;;
59978;SDS011;45839;44.882;20.650;2023-08-08T04:12:07;3.22;;;0.77;;
59978;SDS011;45839;44.882;20.650;2023-08-08T04:14:33;3.72;;;1.40;;
59978;SDS011;45839;44.882;20.650;2023-08-08T04:16:59;3.42;;;0.90;;
59978;SDS011;45839;44.882;20.650;2023-08-08T04:19:25;2.40;;;0.70;;
59978;SDS011;45839;44.882;20.650;2023-08-08T04:21:51;1.98;;;0.80;;
59978;SDS011;45839;44.882;20.650;2023-08-08T04:24:17;2.75;;;1.08;;
59978;SDS011;45839;44.882;20.650;2023-08-08T04:26:43;3.35;;;1.10;;
59978;SDS011;45839;44.882;20.650;2023-08-08T04:29:09;6.50;;;1.58;;
59978;SDS011;45839;44.882;20.650;2023-08-08T04:31:35;2.30;;;0.93;;
59978;SDS011;45839;44.882;20.650;2023-08-08T04:34:01;3.95;;;1.35;;
59978;SDS011;45839;44.882;20.650;2023-08-08T04:36:28;4.35;;;1.50;;
59978;SDS011;45839;44.882;20.650;2023-08-08T04:38:54;4.88;;;1.25;;
59978;SDS011;45839;44.882;20.650;2023-08-08T04:41:20;3.25;;;1.35;;
59978;SDS011;45839;44.882;20.650;2023-08-08T04:43:46;4.13;;;1.52;;
59978;SDS011;45839;44.882;20.650;2023-08-08T04:46:12;3.65;;;1.20;;
59978;SDS011;45839;44.882;20.650;2023-08-08T04:48:38;2.83;;;1.08;;
59978;SDS011;45839;44.882;20.650;2023-08-08T04:51:04;8.13;;;3.65;;
59978;SDS011;45839;44.882;20.650;2023-08-08T04:53:30;5.13;;;2.00;;
59978;SDS011;45839;44.882;20.650;2023-08-08T04:55:57;3.03;;;1.30;;
59978;SDS011;45839;44.882;20.650;2023-08-08T04:58:23;3.20;;;1.38;;
59978;SDS011;45839;44.882;20.650;2023-08-08T05:00:49;11.77;;;7.20;;
59978;SDS011;45839;44.882;20.650;2023-08-08T05:03:20;7.88;;;4.57;;
59978;SDS011;45839;44.882;20.650;2023-08-08T05:05:46;4.60;;;2.10;;
59978;SDS011;45839;44.882;20.650;2023-08-08T05:08:12;34.58;;;26.52;;
59978;SDS011;45839;44.882;20.650;2023-08-08T05:10:39;18.38;;;11.85;;
59978;SDS011;45839;44.882;20.650;2023-08-08T05:13:05;8.52;;;5.30;;
59978;SDS011;45839;44.882;20.650;2023-08-08T05:15:31;9.15;;;5.50;;
59978;SDS011;45839;44.882;20.650;2023-08-08T05:17:57;6.90;;;3.45;;
59978;SDS011;45839;44.882;20.650;2023-08-08T05:20:24;7.13;;;3.72;;
59978;SDS011;45839;44.882;20.650;2023-08-08T05:22:50;13.65;;;9.90;;
59978;SDS011;45839;44.882;20.650;2023-08-08T05:25:16;7.03;;;4.32;;
59978;SDS011;45839;44.882;20.650;2023-08-08T05:27:42;7.80;;;4.57;;
59978;SDS011;45839;44.882;20.650;2023-08-08T05:30:08;8.18;;;4.88;;
59978;SDS011;45839;44.882;20.650;2023-08-08T05:32:34;27.90;;;17.60;;
59978;SDS011;45839;44.882;20.650;2023-08-08T05:35:01;11.20;;;6.80;;
59978;SDS011;45839;44.882;20.650;2023-08-08T05:37:29;9.80;;;6.38;;
59978;SDS011;45839;44.882;20.650;2023-08-08T05:39:55;16.40;;;11.90;;
59978;SDS011;45839;44.882;20.650;2023-08-08T05:42:21;18.52;;;13.02;;
59978;SDS011;45839;44.882;20.650;2023-08-08T05:44:47;30.95;;;20.88;;
59978;SDS011;45839;44.882;20.650;2023-08-08T05:47:13;27.63;;;21.08;;
59978;SDS011;45839;44.882;20.650;2023-08-08T05:49:39;27.35;;;20.55;;
59978;SDS011;45839;44.882;20.650;2023-08-08T05:52:08;12.75;;;7.57;;
59978;SDS011;45839;44.882;20.650;2023-08-08T05:54:35;6.68;;;3.50;;
59978;SDS011;45839;44.882;20.650;2023-08-08T05:57:02;4.60;;;2.05;;
59978;SDS011;45839;44.882;20.650;2023-08-08T05:59:28;5.95;;;3.13;;
59978;SDS011;45839;44.882;20.650;2023-08-08T06:01:54;3.15;;;1.55;;
59978;SDS011;45839;44.882;20.650;2023-08-08T06:04:20;6.72;;;3.58;;
59978;SDS011;45839;44.882;20.650;2023-08-08T06:06:46;5.90;;;3.00;;
59978;SDS011;45839;44.882;20.650;2023-08-08T06:09:14;13.65;;;9.18;;
59978;SDS011;45839;44.882;20.650;2023-08-08T06:11:40;7.18;;;4.05;;
59978;SDS011;45839;44.882;20.650;2023-08-08T06:14:06;7.32;;;3.22;;
59978;SDS011;45839;44.882;20.650;2023-08-08T06:16:32;2.10;;;1.00;;
59978;SDS011;45839;44.882;20.650;2023-08-08T06:18:58;4.80;;;1.88;;
59978;SDS011;45839;44.882;20.650;2023-08-08T06:21:24;2.60;;;1.20;;
59978;SDS011;45839;44.882;20.650;2023-08-08T06:23:50;2.13;;;0.90;;
59978;SDS011;45839;44.882;20.650;2023-08-08T06:26:19;3.47;;;1.15;;
59978;SDS011;45839;44.882;20.650;2023-08-08T06:28:46;4.10;;;1.80;;
59978;SDS011;45839;44.882;20.650;2023-08-08T06:31:12;4.55;;;1.38;;
59978;SDS011;45839;44.882;20.650;2023-08-08T06:33:38;3.30;;;1.25;;
59978;SDS011;45839;44.882;20.650;2023-08-08T06:36:05;4.15;;;1.92;;
59978;SDS011;45839;44.882;20.650;2023-08-08T06:38:31;2.50;;;0.90;;
59978;SDS011;45839;44.882;20.650;2023-08-08T06:40:59;1.83;;;0.88;;
59978;SDS011;45839;44.882;20.650;2023-08-08T06:43:25;2.40;;;1.00;;
59978;SDS011;45839;44.882;20.650;2023-08-08T06:45:51;2.92;;;0.90;;
59978;SDS011;45839;44.882;20.650;2023-08-08T06:48:17;3.47;;;1.40;;
59978;SDS011;45839;44.882;20.650;2023-08-08T06:50:43;2.25;;;1.15;;
59978;SDS011;45839;44.882;20.650;2023-08-08T06:53:10;2.33;;;1.10;;
59978;SDS011;45839;44.882;20.650;2023-08-08T06:55:36;3.47;;;1.10;;
59978;SDS011;45839;44.882;20.650;2023-08-08T06:58:02;3.58;;;1.40;;
59978;SDS011;45839;44.882;20.650;2023-08-08T07:00:28;8.27;;;4.97;;
59978;SDS011;45839;44.882;20.650;2023-08-08T07:02:54;7.72;;;3.60;;
59978;SDS011;45839;44.882;20.650;2023-08-08T07:05:20;10.23;;;5.82;;
59978;SDS011;45839;44.882;20.650;2023-08-08T07:07:48;7.43;;;3.20;;
59978;SDS011;45839;44.882;20.650;2023-08-08T07:10:14;4.95;;;2.30;;
59978;SDS011;45839;44.882;20.650;2023-08-08T07:12:41;4.47;;;2.05;;
59978;SDS011;45839;44.882;20.650;2023-08-08T07:15:07;7.18;;;3.55;;
59978;SDS011;45839;44.882;20.650;2023-08-08T07:17:33;4.32;;;1.63;;
59978;SDS011;45839;44.882;20.650;2023-08-08T07:19:59;4.25;;;1.90;;
59978;SDS011;45839;44.882;20.650;2023-08-08T07:22:25;6.18;;;3.30;;
59978;SDS011;45839;44.882;20.650;2023-08-08T07:24:51;8.27;;;4.85;;
59978;SDS011;45839;44.882;20.650;2023-08-08T07:27:17;6.32;;;3.30;;
59978;SDS011;45839;44.882;20.650;2023-08-08T07:29:43;7.03;;;3.67;;
59978;SDS011;45839;44.882;20.650;2023-08-08T07:32:09;4.35;;;1.98;;
59978;SDS011;45839;44.882;20.650;2023-08-08T07:34:36;16.77;;;10.43;;
59978;SDS011;45839;44.882;20.650;2023-08-08T07:37:02;21.42;;;14.50;;
59978;SDS011;45839;44.882;20.650;2023-08-08T07:39:28;8.88;;;5.55;;
59978;SDS011;45839;44.882;20.650;2023-08-08T07:41:55;6.55;;;3.25;;
59978;SDS011;45839;44.882;20.650;2023-08-08T07:44:22;9.20;;;5.60;;
59978;SDS011;45839;44.882;20.650;2023-08-08T07:46:48;3.17;;;1.38;;
59978;SDS011;45839;44.882;20.650;2023-08-08T07:49:14;3.83;;;1.50;;
59978;SDS011;45839;44.882;20.650;2023-08-08T07:51:40;6.18;;;2.55;;
59978;SDS011;45839;44.882;20.650;2023-08-08T07:54:06;2.65;;;1.10;;
59978;SDS011;45839;44.882;20.650;2023-08-08T07:56:34;2.78;;;1.10;;
59978;SDS011;45839;44.882;20.650;2023-08-08T07:59:00;4.15;;;1.70;;
59978;SDS011;45839;44.882;20.650;2023-08-08T08:01:27;4.63;;;1.88;;
59978;SDS011;45839;44.882;20.650;2023-08-08T08:03:53;4.75;;;1.40;;
59978;SDS011;45839;44.882;20.650;2023-08-08T08:06:19;5.10;;;2.15;;
59978;SDS011;45839;44.882;20.650;2023-08-08T08:08:45;3.47;;;1.58;;
59978;SDS011;45839;44.882;20.650;2023-08-08T08:11:11;5.32;;;2.50;;
59978;SDS011;45839;44.882;20.650;2023-08-08T08:13:38;5.38;;;2.28;;
59978;SDS011;45839;44.882;20.650;2023-08-08T08:16:04;7.05;;;2.17;;
59978;SDS011;45839;44.882;20.650;2023-08-08T08:18:31;2.58;;;1.38;;
59978;SDS011;45839;44.882;20.650;2023-08-08T08:20:58;3.97;;;1.73;;
59978;SDS011;45839;44.882;20.650;2023-08-08T08:23:25;6.38;;;1.88;;
59978;SDS011;45839;44.882;20.650;2023-08-08T08:25:51;3.50;;;1.50;;
59978;SDS011;45839;44.882;20.650;2023-08-08T08:28:17;3.35;;;1.50;;
59978;SDS011;45839;44.882;20.650;2023-08-08T08:30:43;3.25;;;1.40;;
59978;SDS011;45839;44.882;20.650;2023-08-08T08:33:09;2.10;;;0.95;;
59978;SDS011;45839;44.882;20.650;2023-08-08T08:35:35;3.13;;;0.90;;
59978;SDS011;45839;44.882;20.650;2023-08-08T08:38:02;3.88;;;1.20;;
59978;SDS011;45839;44.882;20.650;2023-08-08T08:40:29;1.95;;;1.00;;
59978;SDS011;45839;44.882;20.650;2023-08-08T08:42:59;2.80;;;1.10;;
59978;SDS011;45839;44.882;20.650;2023-08-08T08:45:26;3.28;;;1.10;;
59978;SDS011;45839;44.882;20.650;2023-08-08T08:47:53;3.17;;;1.45;;
59978;SDS011;45839;44.882;20.650;2023-08-08T08:50:21;4.30;;;1.60;;
59978;SDS011;45839;44.882;20.650;2023-08-08T08:52:48;6.95;;;3.45;;
59978;SDS011;45839;44.882;20.650;2023-08-08T08:55:16;3.28;;;1.08;;
59978;SDS011;45839;44.882;20.650;2023-08-08T08:57:42;2.35;;;1.10;;
59978;SDS011;45839;44.882;20.650;2023-08-08T09:00:09;2.15;;;1.00;;
59978;SDS011;45839;44.882;20.650;2023-08-08T09:02:36;2.17;;;1.02;;
59978;SDS011;45839;44.882;20.650;2023-08-08T09:05:02;3.05;;;1.27;;
59978;SDS011;45839;44.882;20.650;2023-08-08T09:07:29;2.15;;;1.10;;
59978;SDS011;45839;44.882;20.650;2023-08-08T09:09:55;3.25;;;1.27;;
59978;SDS011;45839;44.882;20.650;2023-08-08T09:12:21;2.53;;;1.00;;
59978;SDS011;45839;44.882;20.650;2023-08-08T09:14:53;4.22;;;1.10;;
59978;SDS011;45839;44.882;20.650;2023-08-08T09:17:19;4.47;;;1.30;;
59978;SDS011;45839;44.882;20.650;2023-08-08T09:19:46;3.15;;;1.10;;
59978;SDS011;45839;44.882;20.650;2023-08-08T09:22:12;2.10;;;1.08;;
59978;SDS011;45839;44.882;20.650;2023-08-08T09:24:42;3.42;;;1.23;;
59978;SDS011;45839;44.882;20.650;2023-08-08T09:27:08;2.28;;;1.00;;
59978;SDS011;45839;44.882;20.650;2023-08-08T09:29:35;2.78;;;1.00;;
59978;SDS011;45839;44.882;20.650;2023-08-08T09:32:07;2.97;;;1.00;;
59978;SDS011;45839;44.882;20.650;2023-08-08T09:34:33;5.37;;;2.63;;
59978;SDS011;45839;44.882;20.650;2023-08-08T09:36:59;3.67;;;1.20;;
59978;SDS011;45839;44.882;20.650;2023-08-08T09:39:26;4.60;;;1.30;;
59978;SDS011;45839;44.882;20.650;2023-08-08T09:41:52;4.85;;;1.10;;
59978;SDS011;45839;44.882;20.650;2023-08-08T09:44:22;4.70;;;1.40;;
59978;SDS011;45839;44.882;20.650;2023-08-08T09:46:48;3.15;;;1.20;;
59978;SDS011;45839;44.882;20.650;2023-08-08T09:49:15;4.00;;;1.30;;
59978;SDS011;45839;44.882;20.650;2023-08-08T09:51:42;3.88;;;1.15;;
59978;SDS011;45839;44.882;20.650;2023-08-08T09:54:08;2.60;;;1.08;;
59978;SDS011;45839;44.882;20.650;2023-08-08T09:56:35;1.90;;;0.98;;
59978;SDS011;45839;44.882;20.650;2023-08-08T09:59:02;2.63;;;0.90;;
59978;SDS011;45839;44.882;20.650;2023-08-08T10:01:28;2.53;;;1.10;;
59978;SDS011;45839;44.882;20.650;2023-08-08T10:03:54;2.42;;;1.00;;
59978;SDS011;45839;44.882;20.650;2023-08-08T10:06:21;4.38;;;1.00;;
59978;SDS011;45839;44.882;20.650;2023-08-08T10:08:47;3.08;;;1.27;;
59978;SDS011;45839;44.882;20.650;2023-08-08T10:11:13;3.08;;;1.10;;
59978;SDS011;45839;44.882;20.650;2023-08-08T10:13:46;3.38;;;1.50;;
59978;SDS011;45839;44.882;20.650;2023-08-08T10:16:15;2.30;;;0.93;;
59978;SDS011;45839;44.882;20.650;2023-08-08T10:18:41;2.28;;;0.90;;
59978;SDS011;45839;44.882;20.650;2023-08-08T10:21:07;3.33;;;1.30;;
59978;SDS011;45839;44.882;20.650;2023-08-08T10:23:38;3.30;;;1.15;;
59978;SDS011;45839;44.882;20.650;2023-08-08T10:26:05;3.13;;;1.10;;
59978;SDS011;45839;44.882;20.650;2023-08-08T10:28:32;2.80;;;1.13;;
59978;SDS011;45839;44.882;20.650;2023-08-08T10:30:59;2.78;;;1.00;;
59978;SDS011;45839;44.882;20.650;2023-08-08T10:33:40;3.60;;;1.20;;
59978;SDS011;45839;44.882;20.650;2023-08-08T10:36:07;3.17;;;1.13;;
59978;SDS011;45839;44.882;20.650;2023-08-08T10:38:41;2.63;;;1.10;;
59978;SDS011;45839;44.882;20.650;2023-08-08T10:41:11;3.60;;;1.27;;
59978;SDS011;45839;44.882;20.650;2023-08-08T10:43:38;2.72;;;1.00;;
59978;SDS011;45839;44.882;20.650;2023-08-08T10:46:05;2.28;;;1.20;;
59978;SDS011;45839;44.882;20.650;2023-08-08T10:48:33;4.72;;;1.35;;
59978;SDS011;45839;44.882;20.650;2023-08-08T10:50:59;3.33;;;1.27;;
59978;SDS011;45839;44.882;20.650;2023-08-08T10:53:29;3.20;;;1.20;;
59978;SDS011;45839;44.882;20.650;2023-08-08T10:55:59;5.80;;;1.10;;
59978;SDS011;45839;44.882;20.650;2023-08-08T10:58:39;4.22;;;1.20;;
59978;SDS011;45839;44.882;20.650;2023-08-08T11:01:06;6.32;;;1.20;;
59978;SDS011;45839;44.882;20.650;2023-08-08T11:03:36;4.03;;;1.10;;
59978;SDS011;45839;44.882;20.650;2023-08-08T11:06:03;3.75;;;1.20;;
59978;SDS011;45839;44.882;20.650;2023-08-08T11:08:30;3.50;;;1.10;;
59978;SDS011;45839;44.882;20.650;2023-08-08T11:10:57;6.30;;;1.10;;
59978;SDS011;45839;44.882;20.650;2023-08-08T11:13:24;4.15;;;1.25;;
59978;SDS011;45839;44.882;20.650;2023-08-08T11:15:50;2.58;;;1.20;;
59978;SDS011;45839;44.882;20.650;2023-08-08T11:18:16;5.72;;;1.20;;
59978;SDS011;45839;44.882;20.650;2023-08-08T11:20:43;4.43;;;1.17;;
59978;SDS011;45839;44.882;20.650;2023-08-08T11:23:09;3.03;;;1.10;;
59978;SDS011;45839;44.882;20.650;2023-08-08T11:25:39;2.80;;;0.93;;
59978;SDS011;45839;44.882;20.650;2023-08-08T11:28:05;2.97;;;1.10;;
59978;SDS011;45839;44.882;20.650;2023-08-08T11:30:33;2.38;;;0.95;;
59978;SDS011;45839;44.882;20.650;2023-08-08T11:33:00;3.30;;;1.20;;
59978;SDS011;45839;44.882;20.650;2023-08-08T11:35:26;4.60;;;1.10;;
59978;SDS011;45839;44.882;20.650;2023-08-08T11:37:53;4.22;;;1.40;;
59978;SDS011;45839;44.882;20.650;2023-08-08T11:40:20;3.45;;;1.40;;
59978;SDS011;45839;44.882;20.650;2023-08-08T11:42:48;3.85;;;1.52;;
59978;SDS011;45839;44.882;20.650;2023-08-08T11:45:16;4.68;;;1.60;;
59978;SDS011;45839;44.882;20.650;2023-08-08T11:47:43;3.95;;;1.38;;
59978;SDS011;45839;44.882;20.650;2023-08-08T11:50:10;6.18;;;1.35;;
59978;SDS011;45839;44.882;20.650;2023-08-08T11:52:40;4.57;;;1.70;;
59978;SDS011;45839;44.882;20.650;2023-08-08T11:55:07;3.80;;;1.30;;
59978;SDS011;45839;44.882;20.650;2023-08-08T11:57:35;4.00;;;1.95;;
59978;SDS011;45839;44.882;20.650;2023-08-08T12:00:05;4.00;;;1.50;;
59978;SDS011;45839;44.882;20.650;2023-08-08T12:02:32;3.95;;;1.50;;
59978;SDS011;45839;44.882;20.650;2023-08-08T12:05:08;6.20;;;2.13;;
59978;SDS011;45839;44.882;20.650;2023-08-08T12:07:36;3.45;;;1.40;;
59978;SDS011;45839;44.882;20.650;2023-08-08T12:10:03;7.35;;;1.73;;
59978;SDS011;45839;44.882;20.650;2023-08-08T12:12:30;5.82;;;2.80;;
59978;SDS011;45839;44.882;20.650;2023-08-08T12:15:02;6.00;;;2.33;;
59978;SDS011;45839;44.882;20.650;2023-08-08T12:17:28;4.80;;;1.48;;
59978;SDS011;45839;44.882;20.650;2023-08-08T12:19:58;4.32;;;1.55;;
59978;SDS011;45839;44.882;20.650;2023-08-08T12:22:24;3.17;;;1.10;;
59978;SDS011;45839;44.882;20.650;2023-08-08T12:24:51;3.55;;;1.25;;
59978;SDS011;45839;44.882;20.650;2023-08-08T12:27:17;3.75;;;1.60;;
59978;SDS011;45839;44.882;20.650;2023-08-08T12:29:43;2.92;;;1.30;;
59978;SDS011;45839;44.882;20.650;2023-08-08T12:32:09;4.07;;;1.80;;
59978;SDS011;45839;44.882;20.650;2023-08-08T12:34:35;3.58;;;1.50;;
59978;SDS011;45839;44.882;20.650;2023-08-08T12:37:01;3.83;;;1.50;;
59978;SDS011;45839;44.882;20.650;2023-08-08T12:39:28;6.93;;;1.50;;
59978;SDS011;45839;44.882;20.650;2023-08-08T12:41:54;3.08;;;1.50;;
59978;SDS011;45839;44.882;20.650;2023-08-08T12:44:21;2.53;;;1.27;;
59978;SDS011;45839;44.882;20.650;2023-08-08T12:46:47;3.47;;;1.40;;
59978;SDS011;45839;44.882;20.650;2023-08-08T12:49:13;1.85;;;0.95;;
59978;SDS011;45839;44.882;20.650;2023-08-08T12:51:39;3.92;;;1.20;;
59978;SDS011;45839;44.882;20.650;2023-08-08T12:54:06;3.50;;;1.10;;
59978;SDS011;45839;44.882;20.650;2023-08-08T12:56:32;4.18;;;1.23;;
59978;SDS011;45839;44.882;20.650;2023-08-08T12:58:58;5.43;;;1.08;;
59978;SDS011;45839;44.882;20.650;2023-08-08T13:01:24;4.60;;;1.27;;
59978;SDS011;45839;44.882;20.650;2023-08-08T13:03:50;10.35;;;6.43;;
59978;SDS011;45839;44.882;20.650;2023-08-08T13:06:16;5.05;;;1.80;;
59978;SDS011;45839;44.882;20.650;2023-08-08T13:08:42;3.30;;;1.20;;
59978;SDS011;45839;44.882;20.650;2023-08-08T13:11:09;4.47;;;1.10;;
59978;SDS011;45839;44.882;20.650;2023-08-08T13:13:36;2.85;;;1.30;;
59978;SDS011;45839;44.882;20.650;2023-08-08T13:16:02;3.40;;;1.20;;
59978;SDS011;45839;44.882;20.650;2023-08-08T13:18:28;2.88;;;1.17;;
59978;SDS011;45839;44.882;20.650;2023-08-08T13:20:55;5.93;;;3.22;;
59978;SDS011;45839;44.882;20.650;2023-08-08T13:23:21;6.63;;;1.25;;
59978;SDS011;45839;44.882;20.650;2023-08-08T13:25:47;3.22;;;1.25;;
59978;SDS011;45839;44.882;20.650;2023-08-08T13:28:14;4.55;;;2.53;;
59978;SDS011;45839;44.882;20.650;2023-08-08T13:30:40;3.10;;;1.20;;
59978;SDS011;45839;44.882;20.650;2023-08-08T13:33:08;3.30;;;1.50;;
59978;SDS011;45839;44.882;20.650;2023-08-08T13:35:34;2.83;;;1.35;;
59978;SDS011;45839;44.882;20.650;2023-08-08T13:38:00;3.35;;;1.00;;
59978;SDS011;45839;44.882;20.650;2023-08-08T13:40:26;3.63;;;1.20;;
59978;SDS011;45839;44.882;20.650;2023-08-08T13:42:52;4.20;;;1.40;;
59978;SDS011;45839;44.882;20.650;2023-08-08T13:45:19;2.88;;;1.15;;
59978;SDS011;45839;44.882;20.650;2023-08-08T13:47:46;2.33;;;1.02;;
59978;SDS011;45839;44.882;20.650;2023-08-08T13:50:13;2.28;;;0.98;;
59978;SDS011;45839;44.882;20.650;2023-08-08T13:52:40;4.28;;;1.05;;
59978;SDS011;45839;44.882;20.650;2023-08-08T13:55:06;1.63;;;0.90;;
59978;SDS011;45839;44.882;20.650;2023-08-08T13:57:33;3.30;;;1.10;;
59978;SDS011;45839;44.882;20.650;2023-08-08T13:59:59;1.85;;;0.88;;
59978;SDS011;45839;44.882;20.650;2023-08-08T14:02:25;3.97;;;1.50;;
59978;SDS011;45839;44.882;20.650;2023-08-08T14:04:52;2.10;;;0.90;;
59978;SDS011;45839;44.882;20.650;2023-08-08T14:07:18;3.85;;;1.20;;
59978;SDS011;45839;44.882;20.650;2023-08-08T14:09:46;2.30;;;1.00;;
59978;SDS011;45839;44.882;20.650;2023-08-08T14:12:12;4.10;;;1.25;;
59978;SDS011;45839;44.882;20.650;2023-08-08T14:14:38;2.55;;;1.00;;
59978;SDS011;45839;44.882;20.650;2023-08-08T14:17:04;2.75;;;1.20;;
59978;SDS011;45839;44.882;20.650;2023-08-08T14:19:30;2.85;;;1.25;;
59978;SDS011;45839;44.882;20.650;2023-08-08T14:21:56;2.90;;;1.02;;
59978;SDS011;45839;44.882;20.650;2023-08-08T14:24:22;3.10;;;1.35;;
59978;SDS011;45839;44.882;20.650;2023-08-08T14:26:48;5.63;;;1.80;;
59978;SDS011;45839;44.882;20.650;2023-08-08T14:29:14;2.85;;;1.27;;